Angora, Nebraska
Current Conditions -  °F | °C
As of 3:53 PM on Saturday 25 Oct 2014 (Local Time) from KAIA Reporting Station
Clear Clear  
Wind Chill: 24°   Ceiling: Unl
Heat Index: 24°   Visibility: 10mi
Dew Point:   Wind: 6mph
Humidity: 23%   Direction: 110°ESE
Pressure: 30.02"   Gusts: NA
Location:  41.85°N, 103.13°W
Report Text: KAIA 252153Z AUTO 11005KT 10SM CLR 24/02 A3002 RMK AO2 SLP150 T02440022
Loading
Personal Weather Stations






























Interactive Weather Map
Tropical Storm Tracking
New forecast layout! Learn more

10-Day Weather Forecast

Advertisements
Track Severe Weather on mobile